createdAt,value
2023-04-17T00:02:26.572Z,100876.91
2023-04-17T00:07:29.475Z,100880.25
2023-04-17T00:12:33.949Z,100885.94
2023-04-17T00:17:36.765Z,100884.13
2023-04-17T00:22:39.766Z,100886.59
2023-04-17T00:27:44.000Z,100884.56
2023-04-17T00:32:46.903Z,100871.13
2023-04-17T00:37:49.835Z,100877.69
2023-04-17T00:42:56.230Z,100875.09
2023-04-17T00:48:00.562Z,100870.81
2023-04-17T00:53:03.321Z,100873.50
2023-04-17T00:58:07.559Z,100878.00
2023-04-17T01:03:10.465Z,100880.03
2023-04-17T01:08:13.540Z,100879.19
2023-04-17T01:13:17.673Z,100882.19
2023-04-17T01:18:20.908Z,100875.97
2023-04-17T01:23:23.710Z,100873.41
2023-04-17T01:28:28.084Z,100874.44
2023-04-17T01:33:31.049Z,100882.63
2023-04-17T01:38:33.998Z,100874.78
2023-04-17T01:43:39.673Z,100874.91
2023-04-17T01:48:42.546Z,100880.38
2023-04-17T01:53:45.505Z,100882.22
2023-04-17T01:58:49.640Z,100881.34
2023-04-17T02:03:52.515Z,100883.38
2023-04-17T02:08:55.989Z,100887.13
2023-04-17T02:14:00.334Z,100882.00
2023-04-17T02:19:03.307Z,100881.03
2023-04-17T02:24:07.980Z,100896.25
2023-04-17T02:29:12.294Z,100890.03
2023-04-17T02:34:15.475Z,100896.34
2023-04-17T02:39:19.339Z,100891.31
2023-04-17T02:44:23.606Z,100880.47
2023-04-17T02:49:26.473Z,100890.34
2023-04-17T02:54:29.300Z,100886.78
2023-04-17T02:59:33.489Z,100887.66
2023-04-17T03:04:36.289Z,100890.56
2023-04-17T03:09:39.828Z,100887.88
2023-04-17T03:14:44.320Z,100892.38
2023-04-17T03:19:47.433Z,100895.94
2023-04-17T03:24:50.541Z,100910.19
2023-04-17T03:29:55.614Z,100908.03
2023-04-17T03:34:59.863Z,100913.50
2023-04-17T03:40:04.078Z,100917.91
2023-04-17T03:45:10.250Z,100918.03
2023-04-17T03:50:14.359Z,100919.72
2023-04-17T03:55:24.263Z,100919.94
2023-04-17T04:00:28.982Z,100920.03
2023-04-17T04:05:36.580Z,100920.25
2023-04-17T04:10:40.091Z,100922.72
2023-04-17T04:15:44.707Z,100927.50
2023-04-17T04:20:48.316Z,100935.00
2023-04-17T04:25:57.853Z,100929.63
2023-04-17T04:31:10.076Z,100935.22
2023-04-17T04:36:20.986Z,100941.53
2023-04-17T04:41:33.842Z,100952.47
2023-04-17T04:46:42.437Z,100957.84
2023-04-17T04:51:45.510Z,100957.06
2023-04-17T04:56:49.204Z,100959.84
2023-04-17T05:01:53.519Z,100967.03
2023-04-17T05:06:58.850Z,100973.47
2023-04-17T05:12:02.330Z,100970.91
2023-04-17T05:17:08.299Z,100978.09
2023-04-17T05:22:11.184Z,100985.28
2023-04-17T05:27:26.853Z,100992.53
2023-04-17T05:32:32.030Z,100995.16
2023-04-17T05:37:40.155Z,100992.53
2023-04-17T05:42:43.063Z,101007.97
2023-04-17T05:47:47.507Z,101003.56
2023-04-17T05:52:50.924Z,101014.19
2023-04-17T05:57:55.636Z,101008.94
2023-04-17T06:03:02.971Z,101004.66
2023-04-17T06:08:16.300Z,101011.84
2023-04-17T06:13:19.099Z,101018.06
2023-04-17T06:18:26.798Z,101020.91
2023-04-17T06:23:29.591Z,101023.59
2023-04-17T06:28:32.935Z,101026.59
2023-04-17T06:33:37.589Z,101028.19
2023-04-17T06:38:41.052Z,101029.91
2023-04-17T06:43:44.463Z,101038.91
2023-04-17T06:48:52.297Z,101035.38
2023-04-17T06:53:55.276Z,101042.56
2023-04-17T06:58:58.506Z,101044.28
2023-04-17T07:04:03.449Z,101051.56
2023-04-17T07:09:07.512Z,101057.69
2023-04-17T07:14:12.731Z,101063.91
2023-04-17T07:19:17.057Z,101062.94
2023-04-17T07:24:19.771Z,101064.88
2023-04-17T07:29:22.631Z,101074.44
2023-04-17T07:34:27.053Z,101077.81
2023-04-17T07:39:31.653Z,101093.13
2023-04-17T07:44:34.446Z,101085.84
2023-04-17T07:49:40.325Z,101090.25
2023-04-17T07:54:43.138Z,101091.75
2023-04-17T07:59:46.164Z,101098.88
2023-04-17T08:04:52.363Z,101098.38
2023-04-17T08:09:55.445Z,101106.31
2023-04-17T08:15:02.029Z,101100.69
2023-04-17T08:20:13.435Z,101113.22
2023-04-17T08:25:16.413Z,101122.09
2023-04-17T08:30:20.213Z,101118.41
2023-04-17T08:35:25.213Z,101121.94
2023-04-17T08:40:28.021Z,101118.09
2023-04-17T08:45:30.915Z,101125.69
2023-04-17T08:50:35.041Z,101121.28
2023-04-17T08:55:37.842Z,101136.19
2023-04-17T09:00:41.553Z,101130.28
2023-04-17T09:05:46.498Z,101146.19
2023-04-17T09:10:50.229Z,101150.00
2023-04-17T09:16:04.880Z,101150.00
2023-04-17T09:21:09.676Z,101145.41
2023-04-17T09:26:14.941Z,101144.53
2023-04-17T09:31:27.300Z,101149.63
2023-04-17T09:36:32.135Z,101150.97
2023-04-17T09:41:36.529Z,101148.19
2023-04-17T09:46:41.415Z,101144.44
2023-04-17T09:51:45.860Z,101151.50
2023-04-17T09:56:49.727Z,101143.47
2023-04-17T10:01:54.257Z,101157.09
2023-04-17T10:06:58.607Z,101159.69
2023-04-17T10:12:01.893Z,101162.94
2023-04-17T10:17:26.301Z,101161.34
2023-04-17T10:22:34.819Z,101152.59
2023-04-17T10:27:45.385Z,101153.28
2023-04-17T10:32:49.657Z,101153.56
2023-04-17T10:38:07.180Z,101152.97
2023-04-17T10:43:13.119Z,101147.34
2023-04-17T10:48:21.663Z,101149.91
2023-04-17T10:53:46.543Z,101146.94
2023-04-17T10:58:59.413Z,101146.19
2023-04-17T11:04:02.602Z,101144.34
2023-04-17T11:09:08.639Z,101147.34
2023-04-17T11:14:14.158Z,101148.28
2023-04-17T11:19:19.502Z,101154.78
2023-04-17T11:24:28.105Z,101154.63
2023-04-17T11:29:31.324Z,101163.31
2023-04-17T11:34:34.290Z,101159.78
2023-04-17T11:39:38.490Z,101169.56
2023-04-17T11:44:44.495Z,101164.94
2023-04-17T11:49:47.462Z,101169.94
2023-04-17T11:54:58.262Z,101157.94
2023-04-17T12:00:01.069Z,101167.34
2023-04-17T12:05:14.344Z,101164.66
2023-04-17T12:10:18.741Z,101161.97
2023-04-17T12:15:21.835Z,101164.56
2023-04-17T12:20:26.663Z,101158.75
2023-04-17T12:25:31.331Z,101162.19
2023-04-17T12:30:36.057Z,101155.94
2023-04-17T12:35:40.075Z,101171.66
2023-04-17T12:40:45.565Z,101168.13
2023-04-17T12:45:48.663Z,101160.16
2023-04-17T12:50:51.967Z,101163.72
2023-04-17T12:55:56.437Z,101164.56
2023-04-17T13:00:59.269Z,101162.53
2023-04-17T13:06:02.168Z,101164.72
2023-04-17T13:11:06.798Z,101174.00
2023-04-17T13:16:10.538Z,101173.56
2023-04-17T13:21:14.556Z,101172.59
2023-04-17T13:26:20.360Z,101164.25
2023-04-17T13:31:24.761Z,101156.16
2023-04-17T13:36:27.693Z,101152.94
2023-04-17T13:41:32.161Z,101156.19
2023-04-17T13:46:35.575Z,101153.31
2023-04-17T13:51:38.575Z,101151.78
2023-04-17T13:56:43.270Z,101158.75
2023-04-17T14:01:46.332Z,101150.38
2023-04-17T14:06:51.020Z,101149.88
2023-04-17T14:11:55.404Z,101150.03
2023-04-17T14:16:58.381Z,101143.38
2023-04-17T14:22:01.518Z,101149.81
2023-04-17T14:27:05.746Z,101146.31
2023-04-17T14:32:08.890Z,101146.66
2023-04-17T14:37:11.818Z,101138.22
2023-04-17T14:42:16.108Z,101138.47
2023-04-17T14:47:19.106Z,101112.50
2023-04-17T14:52:22.231Z,101121.22
2023-04-17T14:57:26.626Z,101127.63
2023-04-17T15:02:30.480Z,101111.22
2023-04-17T15:07:33.317Z,101135.66
2023-04-17T15:12:37.734Z,101144.59
2023-04-17T15:17:40.807Z,101144.50
2023-04-17T15:22:43.899Z,101147.25
2023-04-17T15:27:48.287Z,101144.47
2023-04-17T15:32:51.291Z,101154.81
2023-04-17T15:37:54.424Z,101155.13
2023-04-17T15:42:58.952Z,101161.06
2023-04-17T15:48:02.108Z,101157.38
2023-04-17T15:53:13.374Z,101149.88
2023-04-17T15:58:18.664Z,101147.25
2023-04-17T16:03:22.485Z,101154.03
2023-04-17T16:08:25.610Z,101148.44
2023-04-17T16:13:29.874Z,101154.28
2023-04-17T16:18:32.824Z,101149.94
2023-04-17T16:23:38.872Z,101160.19
2023-04-17T16:28:43.156Z,101170.59
2023-04-17T16:33:45.995Z,101157.38
2023-04-17T16:38:48.807Z,101168.66
2023-04-17T16:43:52.953Z,101179.63
2023-04-17T16:48:55.867Z,101177.22
2023-04-17T16:53:58.924Z,101176.59
2023-04-17T16:59:04.213Z,101186.59
2023-04-17T17:04:07.064Z,101187.84
2023-04-17T17:09:09.886Z,101197.63
2023-04-17T17:14:14.343Z,101195.25
2023-04-17T17:19:17.421Z,101196.41
2023-04-17T17:24:20.153Z,101200.06
2023-04-17T17:29:24.341Z,101202.81
2023-04-17T17:34:27.562Z,101210.88
2023-04-17T17:39:30.556Z,101218.25
2023-04-17T17:44:34.756Z,101216.47
2023-04-17T17:49:37.625Z,101212.91
2023-04-17T17:54:41.845Z,101211.28
2023-04-17T17:59:46.061Z,101211.00
2023-04-17T18:04:49.171Z,101224.59
2023-04-17T18:09:52.187Z,101222.78
2023-04-17T18:14:56.420Z,101225.56
2023-04-17T18:19:59.271Z,101228.81
2023-04-17T18:25:02.176Z,101232.31
2023-04-17T18:30:07.057Z,101241.00
2023-04-17T18:35:10.499Z,101234.03
2023-04-17T18:40:13.924Z,101241.97
2023-04-17T18:45:18.305Z,101240.03
2023-04-17T18:50:21.176Z,101241.69
2023-04-17T18:55:23.966Z,101247.16
2023-04-17T19:00:28.187Z,101242.66
2023-04-17T19:05:31.239Z,101250.50
2023-04-17T19:10:34.063Z,101242.72
2023-04-17T19:15:39.301Z,101259.03
2023-04-17T19:20:42.751Z,101251.72
2023-04-17T19:25:45.501Z,101256.34
2023-04-17T19:30:49.625Z,101260.63
2023-04-17T19:35:53.185Z,101251.59
2023-04-17T19:41:17.234Z,101257.56
2023-04-17T19:46:21.919Z,101254.19
2023-04-17T19:51:24.827Z,101256.03
2023-04-17T19:56:27.691Z,101258.72
2023-04-17T20:01:32.127Z,101264.66
2023-04-17T20:06:34.927Z,101266.56
2023-04-17T20:11:37.796Z,101267.34
2023-04-17T20:16:44.326Z,101270.03
2023-04-17T20:21:47.782Z,101282.28
2023-04-17T20:26:50.560Z,101279.59
2023-04-17T20:31:54.668Z,101271.25
2023-04-17T20:36:57.688Z,101270.56
2023-04-17T20:42:01.523Z,101262.00
2023-04-17T20:47:05.930Z,101266.50
2023-04-17T20:52:08.772Z,101257.47
2023-04-17T20:57:11.533Z,101269.31
2023-04-17T21:02:16.266Z,101269.94
2023-04-17T21:07:19.745Z,101269.09
2023-04-17T21:12:22.492Z,101270.91
2023-04-17T21:17:26.792Z,101267.06
2023-04-17T21:22:29.626Z,101268.88
2023-04-17T21:27:32.390Z,101268.88
2023-04-17T21:32:36.545Z,101272.34
2023-04-17T21:37:39.494Z,101273.09
2023-04-17T21:42:42.502Z,101259.75
2023-04-17T21:47:46.639Z,101265.88
2023-04-17T21:52:49.381Z,101268.47
2023-04-17T21:57:52.111Z,101262.69
2023-04-17T22:02:56.346Z,101270.19
2023-04-17T22:08:00.568Z,101267.06
2023-04-17T22:13:03.442Z,101264.78
2023-04-17T22:18:07.717Z,101267.88
2023-04-17T22:23:10.626Z,101267.59
2023-04-17T22:28:13.544Z,101271.53
2023-04-17T22:33:17.895Z,101280.47
2023-04-17T22:38:21.306Z,101276.38
2023-04-17T22:43:24.079Z,101271.19
2023-04-17T22:48:28.706Z,101282.25
2023-04-17T22:53:31.464Z,101278.63
2023-04-17T22:58:34.667Z,101261.63
2023-04-17T23:03:38.868Z,101257.16
2023-04-17T23:08:41.682Z,101267.53
2023-04-17T23:13:44.525Z,101261.03
2023-04-17T23:18:48.629Z,101266.91
2023-04-17T23:23:51.903Z,101255.41
2023-04-17T23:28:54.696Z,101253.69
2023-04-17T23:33:58.867Z,101254.91
2023-04-17T23:39:02.945Z,101257.44
2023-04-17T23:44:06.358Z,101253.50
2023-04-17T23:49:10.504Z,101254.16
2023-04-17T23:54:13.538Z,101247.66
2023-04-17T23:59:16.466Z,101243.53
